createdAt,value
2022-08-02T00:03:03.524Z,5.20
2022-08-02T00:06:09.020Z,5.38
2022-08-02T00:09:16.617Z,5.63
2022-08-02T00:12:21.729Z,5.68
2022-08-02T00:15:26.942Z,6.68
2022-08-02T00:18:32.102Z,4.97
2022-08-02T00:21:37.097Z,5.47
2022-08-02T00:24:44.820Z,5.75
2022-08-02T00:27:49.834Z,6.28
2022-08-02T00:30:55.008Z,5.90
2022-08-02T00:34:26.754Z,5.65
2022-08-02T00:37:25.274Z,5.50
2022-08-02T00:40:33.321Z,5.50
2022-08-02T00:43:38.489Z,5.72
2022-08-02T00:46:43.646Z,5.50
2022-08-02T00:49:48.668Z,5.30
2022-08-02T00:52:53.813Z,5.43
2022-08-02T00:56:01.589Z,5.57
2022-08-02T00:59:07.215Z,5.47
2022-08-02T01:02:12.763Z,4.90
2022-08-02T01:05:17.995Z,5.20
2022-08-02T01:08:29.517Z,5.95
2022-08-02T01:11:39.910Z,6.05
2022-08-02T01:14:46.082Z,5.70
2022-08-02T01:17:53.839Z,5.50
2022-08-02T01:21:10.341Z,5.38
2022-08-02T01:24:30.209Z,5.15
2022-08-02T01:27:46.535Z,5.32
2022-08-02T01:30:55.913Z,6.13
2022-08-02T01:34:04.693Z,5.55
2022-08-02T01:37:12.293Z,5.60
2022-08-02T01:40:20.755Z,6.05
2022-08-02T01:43:26.501Z,5.95
2022-08-02T01:46:35.923Z,5.22
2022-08-02T01:49:42.602Z,5.35
2022-08-02T01:52:53.900Z,5.40
2022-08-02T01:56:01.241Z,5.72
2022-08-02T01:59:08.456Z,5.90
2022-08-02T02:02:17.421Z,5.85
2022-08-02T02:05:27.104Z,5.70
2022-08-02T02:08:34.235Z,5.45
2022-08-02T02:12:06.074Z,6.15
2022-08-02T02:15:06.086Z,5.95
2022-08-02T02:18:16.064Z,6.43
2022-08-02T02:21:21.544Z,5.68
2022-08-02T02:24:26.663Z,5.65
2022-08-02T02:27:33.029Z,5.57
2022-08-02T02:30:39.241Z,5.20
2022-08-02T02:33:50.075Z,5.60
2022-08-02T02:36:55.807Z,5.78
2022-08-02T02:40:01.515Z,5.85
2022-08-02T02:43:09.134Z,5.38
2022-08-02T02:46:15.849Z,5.97
2022-08-02T02:49:24.530Z,6.68
2022-08-02T02:52:29.733Z,6.30
2022-08-02T02:55:35.005Z,6.10
2022-08-02T02:58:41.213Z,6.13
2022-08-02T03:01:57.128Z,5.82
2022-08-02T03:05:05.911Z,6.45
2022-08-02T03:08:11.528Z,7.05
2022-08-02T03:11:16.822Z,6.60
2022-08-02T03:14:22.526Z,6.85
2022-08-02T03:17:27.555Z,6.45
2022-08-02T03:20:35.262Z,6.88
2022-08-02T03:23:40.803Z,6.85
2022-08-02T03:26:45.958Z,7.43
2022-08-02T03:29:51.025Z,9.98
2022-08-02T03:32:56.437Z,9.60
2022-08-02T03:36:05.200Z,8.13
2022-08-02T03:39:12.009Z,7.72
2022-08-02T03:42:18.062Z,7.25
2022-08-02T03:45:23.353Z,7.75
2022-08-02T03:48:34.769Z,8.13
2022-08-02T03:51:43.305Z,9.23
2022-08-02T03:54:48.506Z,9.20
2022-08-02T03:57:53.537Z,7.57
2022-08-02T04:00:59.552Z,8.02
2022-08-02T04:04:04.721Z,7.72
2022-08-02T04:07:12.361Z,7.63
2022-08-02T04:10:17.586Z,6.38
2022-08-02T04:13:23.277Z,6.80
2022-08-02T04:16:32.119Z,6.00
2022-08-02T04:19:40.998Z,5.85
2022-08-02T04:22:50.354Z,5.65
2022-08-02T04:25:56.113Z,5.43
2022-08-02T04:29:02.312Z,5.47
2022-08-02T04:32:08.406Z,4.80
2022-08-02T04:35:21.132Z,4.68
2022-08-02T04:38:29.534Z,4.85
2022-08-02T04:41:43.931Z,4.72
2022-08-02T04:44:49.647Z,4.50
2022-08-02T04:48:04.669Z,4.65
2022-08-02T04:51:10.507Z,4.18
2022-08-02T04:54:18.400Z,4.20
2022-08-02T04:57:36.116Z,4.35
2022-08-02T05:00:41.404Z,4.43
2022-08-02T05:03:46.882Z,5.53
2022-08-02T05:06:52.751Z,4.18
2022-08-02T05:10:00.670Z,3.90
2022-08-02T05:13:09.106Z,4.22
2022-08-02T05:16:14.295Z,4.22
2022-08-02T05:19:19.443Z,4.28
2022-08-02T05:22:24.462Z,4.30
2022-08-02T05:25:32.268Z,4.35
2022-08-02T05:28:38.080Z,3.50
2022-08-02T05:31:43.256Z,4.43
2022-08-02T05:34:48.350Z,4.00
2022-08-02T05:37:53.907Z,3.45
2022-08-02T05:41:01.799Z,3.47
2022-08-02T05:44:06.961Z,4.32
2022-08-02T05:47:12.104Z,3.95
2022-08-02T05:50:18.124Z,8.68
2022-08-02T05:53:27.128Z,5.63
2022-08-02T05:56:36.555Z,4.18
2022-08-02T05:59:43.849Z,4.03
2022-08-02T06:03:09.071Z,3.40
2022-08-02T06:06:16.587Z,3.80
2022-08-02T06:09:25.217Z,3.45
2022-08-02T06:12:35.486Z,3.60
2022-08-02T06:15:42.549Z,4.53
2022-08-02T06:18:59.178Z,3.70
2022-08-02T06:22:42.382Z,3.78
2022-08-02T06:25:50.085Z,3.58
2022-08-02T06:29:00.544Z,3.63
2022-08-02T06:32:07.517Z,3.35
2022-08-02T06:35:13.455Z,3.65
2022-08-02T06:38:21.439Z,3.92
2022-08-02T06:41:27.749Z,3.42
2022-08-02T06:44:48.526Z,3.38
2022-08-02T06:47:57.110Z,3.72
2022-08-02T06:51:02.113Z,3.20
2022-08-02T06:54:07.270Z,3.47
2022-08-02T06:57:12.481Z,3.08
2022-08-02T07:00:20.355Z,3.40
2022-08-02T07:03:25.957Z,3.03
2022-08-02T07:06:32.002Z,3.28
2022-08-02T07:09:37.375Z,2.95
2022-08-02T07:12:42.734Z,3.17
2022-08-02T07:15:50.519Z,3.22
2022-08-02T07:18:55.703Z,3.08
2022-08-02T07:22:01.861Z,3.08
2022-08-02T07:25:07.381Z,2.97
2022-08-02T07:28:19.522Z,2.88
2022-08-02T07:31:31.862Z,2.35
2022-08-02T07:34:37.125Z,3.30
2022-08-02T07:37:55.062Z,3.60
2022-08-02T07:41:03.510Z,3.13
2022-08-02T07:44:09.056Z,3.45
2022-08-02T07:47:17.214Z,2.83
2022-08-02T07:50:23.271Z,3.28
2022-08-02T07:53:50.064Z,3.00
2022-08-02T07:56:57.503Z,3.72
2022-08-02T08:00:03.606Z,2.88
2022-08-02T08:03:20.004Z,2.80
2022-08-02T08:06:28.682Z,2.90
2022-08-02T08:09:35.166Z,4.15
2022-08-02T08:12:40.213Z,7.55
2022-08-02T08:15:52.384Z,3.35
2022-08-02T08:19:00.655Z,16.60
2022-08-02T08:22:06.293Z,7.13
2022-08-02T08:25:12.041Z,5.50
2022-08-02T08:28:17.536Z,2.78
2022-08-02T08:31:22.593Z,3.70
2022-08-02T08:34:31.635Z,3.70
2022-08-02T08:37:37.224Z,4.10
2022-08-02T08:40:42.672Z,3.53
2022-08-02T08:43:52.885Z,3.00
2022-08-02T08:46:59.434Z,3.15
2022-08-02T08:50:16.804Z,3.13
2022-08-02T08:53:36.062Z,3.75
2022-08-02T08:56:42.998Z,3.30
2022-08-02T08:59:48.818Z,3.17
2022-08-02T09:02:53.990Z,3.00
2022-08-02T09:06:02.910Z,2.83
2022-08-02T09:09:10.458Z,3.33
2022-08-02T09:12:18.619Z,3.38
2022-08-02T09:15:27.840Z,2.70
2022-08-02T09:18:33.569Z,3.33
2022-08-02T09:21:41.963Z,3.30
2022-08-02T09:24:47.879Z,5.07
2022-08-02T09:27:53.993Z,4.18
2022-08-02T09:31:17.017Z,6.35
2022-08-02T09:34:22.930Z,4.55
2022-08-02T09:37:31.747Z,6.90
2022-08-02T09:40:38.031Z,3.60
2022-08-02T09:44:03.954Z,7.00
2022-08-02T09:47:16.851Z,3.83
2022-08-02T09:50:22.182Z,3.65
2022-08-02T09:53:30.098Z,3.10
2022-08-02T09:56:43.714Z,3.95
2022-08-02T09:59:55.397Z,3.22
2022-08-02T10:03:21.676Z,3.05
2022-08-02T10:06:28.300Z,3.13
2022-08-02T10:09:41.514Z,4.97
2022-08-02T10:12:51.924Z,4.85
2022-08-02T10:15:57.353Z,5.82
2022-08-02T10:19:04.737Z,12.50
2022-08-02T10:22:13.387Z,5.50
2022-08-02T10:25:22.141Z,3.35
2022-08-02T10:28:29.406Z,3.83
2022-08-02T10:31:37.988Z,5.30
2022-08-02T10:34:51.092Z,3.38
2022-08-02T10:37:57.701Z,4.75
2022-08-02T10:41:05.343Z,4.63
2022-08-02T10:44:24.970Z,3.90
2022-08-02T10:47:30.437Z,2.80
2022-08-02T10:50:51.004Z,14.23
2022-08-02T10:54:11.167Z,5.80
2022-08-02T10:57:23.153Z,3.22
2022-08-02T11:00:29.686Z,4.60
2022-08-02T11:03:40.465Z,3.33
2022-08-02T11:07:00.430Z,3.10
2022-08-02T11:10:20.351Z,3.40
2022-08-02T11:13:28.791Z,4.07
2022-08-02T11:17:03.073Z,4.80
2022-08-02T11:20:18.826Z,8.75
2022-08-02T11:23:44.245Z,7.40
2022-08-02T11:26:50.650Z,3.10
2022-08-02T11:29:58.609Z,3.25
2022-08-02T11:33:04.462Z,2.47
2022-08-02T11:36:10.244Z,2.70
2022-08-02T11:39:16.297Z,3.83
2022-08-02T11:42:21.469Z,3.03
2022-08-02T11:45:30.542Z,2.80
2022-08-02T11:48:42.142Z,3.17
2022-08-02T11:51:56.480Z,3.20
2022-08-02T11:55:01.587Z,3.70
2022-08-02T11:58:11.846Z,4.15
2022-08-02T12:01:19.687Z,7.55
2022-08-02T12:04:27.636Z,5.70
2022-08-02T12:07:34.836Z,4.57
2022-08-02T12:10:49.673Z,4.60
2022-08-02T12:13:56.366Z,9.90
2022-08-02T12:17:16.972Z,22.20
2022-08-02T12:20:22.077Z,3.45
2022-08-02T12:23:27.268Z,3.60
2022-08-02T12:26:32.958Z,5.35
2022-08-02T12:29:55.622Z,3.67
2022-08-02T12:33:13.742Z,7.13
2022-08-02T12:36:19.439Z,7.20
2022-08-02T12:39:28.763Z,9.70
2022-08-02T12:42:48.977Z,5.38
2022-08-02T12:45:54.994Z,3.30
2022-08-02T12:49:17.354Z,3.05
2022-08-02T12:52:23.635Z,6.90
2022-08-02T12:56:01.308Z,7.70
2022-08-02T12:58:54.584Z,3.70
2022-08-02T13:02:04.536Z,8.90
2022-08-02T13:05:12.508Z,3.13
2022-08-02T13:08:17.983Z,4.70
2022-08-02T13:11:23.230Z,3.97
2022-08-02T13:14:28.370Z,4.57
2022-08-02T13:17:33.816Z,10.40
2022-08-02T13:20:43.245Z,3.95
2022-08-02T13:23:51.042Z,7.80
2022-08-02T13:27:00.155Z,5.20
2022-08-02T13:30:13.943Z,3.65
2022-08-02T13:33:19.521Z,4.78
2022-08-02T13:36:27.235Z,3.58
2022-08-02T13:39:32.332Z,5.55
2022-08-02T13:42:37.698Z,3.78
2022-08-02T13:45:42.859Z,3.10
2022-08-02T13:48:48.033Z,3.60
2022-08-02T13:51:55.762Z,2.85
2022-08-02T13:55:01.190Z,3.08
2022-08-02T13:58:06.478Z,4.22
2022-08-02T14:01:12.012Z,4.22
2022-08-02T14:04:17.015Z,3.53
2022-08-02T14:07:25.041Z,3.65
2022-08-02T14:10:30.423Z,3.50
2022-08-02T14:13:36.577Z,3.17
2022-08-02T14:16:41.621Z,4.03
2022-08-02T14:19:46.771Z,4.07
2022-08-02T14:22:54.837Z,3.60
2022-08-02T14:26:00.103Z,3.67
2022-08-02T14:29:05.252Z,4.32
2022-08-02T14:32:11.601Z,3.50
2022-08-02T14:38:24.741Z,4.45
2022-08-02T14:41:59.467Z,5.10
2022-08-02T14:45:02.557Z,4.82
2022-08-02T14:48:09.405Z,3.30
2022-08-02T14:51:15.154Z,5.05
2022-08-02T14:54:27.855Z,4.65
2022-08-02T14:57:35.849Z,3.60
2022-08-02T15:00:43.723Z,4.15
2022-08-02T15:03:49.037Z,3.15
2022-08-02T15:06:54.195Z,7.15
2022-08-02T15:10:02.103Z,3.60
2022-08-02T15:13:08.187Z,3.60
2022-08-02T15:16:14.549Z,4.97
2022-08-02T15:19:19.898Z,3.35
2022-08-02T15:22:25.356Z,2.88
2022-08-02T15:25:37.270Z,3.47
2022-08-02T15:28:45.007Z,2.95
2022-08-02T15:31:50.472Z,3.00
2022-08-02T15:34:56.077Z,3.38
2022-08-02T15:38:01.144Z,3.75
2022-08-02T15:41:08.824Z,3.63
2022-08-02T15:47:19.332Z,3.42
2022-08-02T15:50:24.729Z,3.53
2022-08-02T15:53:30.036Z,4.10
2022-08-02T15:56:37.969Z,3.42
2022-08-02T16:02:48.022Z,3.45
2022-08-02T16:05:53.462Z,4.00
2022-08-02T16:08:58.673Z,4.95
2022-08-02T16:12:06.966Z,4.07
2022-08-02T16:15:12.875Z,4.22
2022-08-02T16:18:18.096Z,4.40
2022-08-02T16:21:23.701Z,4.50
2022-08-02T16:24:29.211Z,4.25
2022-08-02T16:28:05.928Z,3.75
2022-08-02T16:31:10.932Z,3.45
2022-08-02T16:34:16.825Z,3.85
2022-08-02T16:37:21.793Z,3.85
2022-08-02T16:40:27.204Z,4.60
2022-08-02T16:43:34.926Z,4.55
2022-08-02T16:46:40.451Z,5.32
2022-08-02T16:50:05.297Z,3.60
2022-08-02T16:53:14.414Z,4.25
2022-08-02T16:56:22.927Z,4.10
2022-08-02T16:59:41.446Z,4.32
2022-08-02T17:02:48.553Z,3.97
2022-08-02T17:05:56.957Z,4.53
2022-08-02T17:09:02.480Z,4.93
2022-08-02T17:12:09.070Z,3.65
2022-08-02T17:15:53.005Z,4.65
2022-08-02T17:21:54.269Z,6.85
2022-08-02T17:25:00.578Z,6.55
2022-08-02T17:28:05.731Z,8.63
2022-08-02T17:31:17.258Z,7.63
2022-08-02T17:34:27.056Z,7.60
2022-08-02T17:37:32.219Z,7.47
2022-08-02T17:40:38.071Z,8.98
2022-08-02T17:43:43.045Z,7.75
2022-08-02T17:46:52.651Z,8.18
2022-08-02T17:49:57.871Z,9.45
2022-08-02T17:53:03.443Z,7.95
2022-08-02T17:56:08.791Z,9.30
2022-08-02T17:59:20.854Z,8.80
2022-08-02T18:02:29.358Z,7.65
2022-08-02T18:08:59.336Z,7.75
2022-08-02T18:12:04.330Z,7.35
2022-08-02T18:15:14.770Z,9.05
2022-08-02T18:18:29.211Z,8.13
2022-08-02T18:21:35.805Z,9.20
2022-08-02T18:24:41.070Z,8.77
2022-08-02T18:27:49.430Z,9.75
2022-08-02T18:30:54.575Z,8.23
2022-08-02T18:34:03.345Z,9.40
2022-08-02T18:37:08.636Z,8.65
2022-08-02T18:40:14.196Z,8.98
2022-08-02T18:43:25.066Z,9.35
2022-08-02T18:46:31.082Z,7.93
2022-08-02T18:49:46.175Z,7.93
2022-08-02T18:52:53.080Z,8.80
2022-08-02T18:56:03.902Z,7.95
2022-08-02T18:59:10.899Z,7.90
2022-08-02T19:02:16.670Z,7.88
2022-08-02T19:05:53.425Z,7.30
2022-08-02T19:09:05.647Z,7.32
2022-08-02T19:12:28.011Z,7.00
2022-08-02T19:15:42.905Z,7.45
2022-08-02T19:18:48.505Z,6.82
2022-08-02T19:28:26.821Z,7.00
2022-08-02T19:31:34.724Z,7.05
2022-08-02T19:35:00.572Z,6.38
2022-08-02T19:38:13.333Z,7.22
2022-08-02T19:41:18.883Z,7.55
2022-08-02T19:44:29.407Z,6.68
2022-08-02T19:47:38.554Z,7.53
2022-08-02T19:50:49.214Z,6.97
2022-08-02T19:53:57.554Z,8.75
2022-08-02T19:57:08.376Z,7.75
2022-08-02T20:00:14.678Z,8.30
2022-08-02T20:03:51.563Z,7.47
2022-08-02T20:06:51.986Z,8.35
2022-08-02T20:09:59.824Z,7.35
2022-08-02T20:16:10.170Z,7.45
2022-08-02T20:19:29.183Z,8.02
2022-08-02T20:22:55.312Z,8.25
2022-08-02T20:26:02.939Z,8.35
2022-08-02T20:29:08.325Z,8.48
2022-08-02T20:32:15.015Z,8.07
2022-08-02T20:35:20.248Z,8.00
2022-08-02T20:38:29.818Z,8.35
2022-08-02T20:41:45.812Z,8.13
2022-08-02T20:44:54.656Z,8.23
2022-08-02T20:51:12.161Z,8.77
2022-08-02T20:54:20.778Z,10.00
2022-08-02T20:57:49.102Z,9.30
2022-08-02T21:00:56.910Z,8.68
2022-08-02T21:04:02.997Z,9.50
2022-08-02T21:07:12.914Z,9.32
2022-08-02T21:10:18.224Z,9.10
2022-08-02T21:13:27.039Z,8.57
2022-08-02T21:16:32.509Z,9.90
2022-08-02T21:19:44.427Z,9.38
2022-08-02T21:22:49.512Z,8.93
2022-08-02T21:25:57.549Z,8.75
2022-08-02T21:29:05.748Z,8.23
2022-08-02T21:32:11.197Z,9.25
2022-08-02T21:35:16.162Z,8.57
2022-08-02T21:38:35.302Z,8.10
2022-08-02T21:41:46.272Z,8.35
2022-08-02T21:44:55.520Z,9.95
2022-08-02T21:48:00.494Z,9.07
2022-08-02T21:51:06.032Z,8.27
2022-08-02T21:54:18.786Z,10.00
2022-08-02T21:57:24.798Z,10.18
2022-08-02T22:00:32.625Z,8.93
2022-08-02T22:03:38.144Z,9.25
2022-08-02T22:07:00.500Z,8.40
2022-08-02T22:10:06.336Z,9.15
2022-08-02T22:13:14.465Z,9.00
2022-08-02T22:16:23.766Z,9.18
2022-08-02T22:19:30.928Z,9.63
2022-08-02T22:22:39.433Z,9.40
2022-08-02T22:25:44.541Z,8.30
2022-08-02T22:28:51.139Z,9.00
2022-08-02T22:32:00.812Z,9.30
2022-08-02T22:38:16.844Z,9.07
2022-08-02T22:41:23.788Z,9.55
2022-08-02T22:44:29.275Z,8.95
2022-08-02T22:47:38.899Z,9.80
2022-08-02T22:50:56.309Z,8.68
2022-08-02T22:54:01.459Z,9.90
2022-08-02T22:57:06.774Z,8.93
2022-08-02T22:59:00.085Z,6.97
2022-08-02T23:00:17.568Z,9.32
2022-08-02T23:03:25.244Z,9.30
2022-08-02T23:06:30.432Z,9.85
2022-08-02T23:09:35.743Z,9.43
2022-08-02T23:12:40.731Z,9.43
2022-08-02T23:15:58.650Z,9.85
2022-08-02T23:19:18.540Z,9.38
2022-08-02T23:22:29.767Z,9.25
2022-08-02T23:25:37.580Z,10.18
2022-08-02T23:28:42.858Z,10.40
2022-08-02T23:31:48.065Z,10.15
2022-08-02T23:34:57.250Z,9.85
2022-08-02T23:38:03.974Z,10.48
2022-08-02T23:41:09.157Z,10.18
2022-08-02T23:44:15.160Z,11.30
2022-08-02T23:47:20.783Z,9.88
2022-08-02T23:50:28.525Z,10.82
2022-08-02T23:53:33.807Z,11.20
2022-08-02T23:56:39.124Z,11.73
2022-08-02T23:59:46.410Z,10.85
